createdAt,value
2022-08-22T00:01:31.967Z,7.78
2022-08-22T00:02:45.363Z,10.32
2022-08-22T00:02:45.719Z,8.00
2022-08-22T00:02:52.694Z,9.73
2022-08-22T00:02:52.803Z,7.30
2022-08-22T00:02:59.341Z,11.30
2022-08-22T00:03:00.233Z,10.40
2022-08-22T00:03:11.844Z,8.15
2022-08-22T00:04:10.541Z,8.45
2022-08-22T00:06:47.980Z,9.00
2022-08-22T00:09:29.763Z,9.65
2022-08-22T00:12:14.595Z,7.80
2022-08-22T00:14:49.314Z,10.27
2022-08-22T00:17:36.224Z,10.35
2022-08-22T00:20:13.093Z,6.50
2022-08-22T00:22:47.692Z,10.52
2022-08-22T00:25:46.420Z,8.57
2022-08-22T00:28:18.396Z,10.90
2022-08-22T00:30:54.270Z,7.05
2022-08-22T00:33:34.023Z,10.15
2022-08-22T00:36:16.266Z,9.55
2022-08-22T00:38:49.635Z,9.95
2022-08-22T00:41:31.903Z,7.78
2022-08-22T00:44:19.629Z,8.35
2022-08-22T00:47:02.920Z,10.23
2022-08-22T00:50:03.436Z,6.75
2022-08-22T00:52:55.059Z,8.07
2022-08-22T00:55:55.035Z,9.00
2022-08-22T00:58:55.929Z,11.07
2022-08-22T01:01:33.602Z,7.72
2022-08-22T01:04:28.733Z,11.50
2022-08-22T01:07:12.394Z,9.40
2022-08-22T01:09:50.861Z,10.63
2022-08-22T01:12:46.966Z,11.00
2022-08-22T01:15:20.722Z,8.25
2022-08-22T01:18:44.881Z,9.88
2022-08-22T01:21:38.392Z,11.35
2022-08-22T01:25:02.593Z,10.48
2022-08-22T01:28:04.419Z,9.73
2022-08-22T01:31:14.175Z,7.00
2022-08-22T01:34:14.041Z,9.40
2022-08-22T01:37:01.674Z,8.52
2022-08-22T01:40:00.478Z,11.57
2022-08-22T01:42:45.228Z,8.93
2022-08-22T01:45:32.355Z,13.25
2022-08-22T01:48:09.571Z,8.43
2022-08-22T01:50:44.773Z,8.88
2022-08-22T01:53:22.725Z,7.90
2022-08-22T01:56:01.650Z,8.18
2022-08-22T01:58:32.564Z,9.30
2022-08-22T02:01:13.956Z,14.13
2022-08-22T02:03:53.423Z,10.45
2022-08-22T02:06:32.364Z,14.50
2022-08-22T02:09:05.787Z,12.05
2022-08-22T02:11:41.690Z,12.05
2022-08-22T02:14:24.333Z,12.63
2022-08-22T02:16:58.379Z,15.05
2022-08-22T02:19:37.858Z,14.27
2022-08-22T02:22:23.526Z,15.18
2022-08-22T02:25:00.790Z,11.40
2022-08-22T02:27:38.267Z,13.75
2022-08-22T02:30:10.418Z,10.13
2022-08-22T02:32:52.882Z,10.27
2022-08-22T02:35:27.025Z,13.50
2022-08-22T02:38:16.149Z,13.98
2022-08-22T02:40:52.719Z,11.13
2022-08-22T02:43:25.141Z,14.15
2022-08-22T02:45:57.009Z,10.48
2022-08-22T02:48:37.391Z,11.20
2022-08-22T02:51:11.557Z,12.45
2022-08-22T02:53:49.868Z,9.02
2022-08-22T02:56:22.610Z,11.65
2022-08-22T02:58:57.307Z,11.95
2022-08-22T03:01:40.132Z,9.88
2022-08-22T03:04:46.712Z,13.73
2022-08-22T03:07:26.479Z,11.77
2022-08-22T03:10:06.532Z,8.25
2022-08-22T03:12:42.689Z,9.70
2022-08-22T03:15:19.180Z,10.15
2022-08-22T03:17:52.013Z,12.73
2022-08-22T03:20:37.042Z,10.77
2022-08-22T03:23:12.517Z,11.93
2022-08-22T03:25:48.334Z,9.45
2022-08-22T03:28:22.762Z,9.73
2022-08-22T03:30:59.438Z,8.77
2022-08-22T03:33:29.656Z,10.27
2022-08-22T03:36:10.531Z,10.90
2022-08-22T03:38:53.350Z,8.23
2022-08-22T03:41:51.259Z,12.73
2022-08-22T03:44:55.283Z,9.77
2022-08-22T03:47:56.151Z,6.85
2022-08-22T03:50:54.569Z,10.55
2022-08-22T03:53:48.042Z,9.85
2022-08-22T03:56:58.911Z,9.85
2022-08-22T04:00:11.856Z,8.63
2022-08-22T04:03:21.847Z,11.75
2022-08-22T04:06:21.510Z,10.02
2022-08-22T04:09:18.134Z,7.68
2022-08-22T04:12:17.502Z,7.63
2022-08-22T04:15:16.474Z,8.95
2022-08-22T04:18:03.389Z,9.55
2022-08-22T04:21:02.302Z,9.88
2022-08-22T04:23:50.396Z,9.05
2022-08-22T04:26:28.679Z,11.52
2022-08-22T04:29:03.944Z,9.30
2022-08-22T04:31:37.856Z,13.75
2022-08-22T04:34:15.293Z,7.20
2022-08-22T04:36:50.065Z,8.15
2022-08-22T04:39:23.402Z,11.82
2022-08-22T04:42:06.942Z,9.02
2022-08-22T04:44:51.514Z,9.10
2022-08-22T04:47:30.545Z,12.15
2022-08-22T04:50:04.382Z,8.93
2022-08-22T04:52:47.531Z,8.57
2022-08-22T04:55:25.467Z,8.10
2022-08-22T04:58:06.408Z,9.65
2022-08-22T05:00:40.781Z,11.60
2022-08-22T05:03:15.838Z,7.63
2022-08-22T05:05:45.384Z,7.90
2022-08-22T05:08:19.690Z,10.35
2022-08-22T05:10:51.846Z,7.63
2022-08-22T05:13:24.578Z,9.80
2022-08-22T05:15:56.743Z,8.05
2022-08-22T05:18:30.148Z,12.73
2022-08-22T05:21:02.220Z,8.45
2022-08-22T05:26:06.261Z,10.55
2022-08-22T05:28:37.181Z,9.75
2022-08-22T05:31:09.805Z,11.57
2022-08-22T05:33:44.265Z,9.45
2022-08-22T05:36:17.101Z,12.13
2022-08-22T05:38:50.401Z,10.30
2022-08-22T05:41:23.743Z,9.88
2022-08-22T05:43:53.798Z,10.85
2022-08-22T05:46:27.069Z,11.63
2022-08-22T05:49:00.540Z,10.32
2022-08-22T05:51:36.528Z,14.00
2022-08-22T05:54:13.229Z,9.63
2022-08-22T05:56:45.099Z,9.85
2022-08-22T05:59:24.662Z,12.65
2022-08-22T06:02:01.965Z,10.85
2022-08-22T06:04:38.244Z,12.32
2022-08-22T06:07:12.932Z,13.82
2022-08-22T06:10:02.829Z,13.52
2022-08-22T06:12:35.389Z,12.07
2022-08-22T06:15:12.283Z,14.32
2022-08-22T06:17:45.400Z,11.55
2022-08-22T06:20:19.757Z,11.48
2022-08-22T06:22:53.654Z,12.68
2022-08-22T06:25:25.930Z,12.68
2022-08-22T06:30:27.491Z,15.43
2022-08-22T06:33:01.445Z,15.05
2022-08-22T06:35:54.722Z,14.20
2022-08-22T06:38:26.381Z,15.40
2022-08-22T06:40:55.665Z,18.85
2022-08-22T06:43:25.701Z,17.67
2022-08-22T06:45:54.494Z,13.15
2022-08-22T06:48:24.775Z,19.02
2022-08-22T06:50:58.561Z,13.35
2022-08-22T06:53:29.327Z,13.60
2022-08-22T06:56:02.616Z,18.17
2022-08-22T06:58:35.116Z,13.63
2022-08-22T07:01:12.183Z,15.07
2022-08-22T07:03:45.918Z,17.83
2022-08-22T07:06:18.358Z,13.75
2022-08-22T07:08:47.504Z,13.07
2022-08-22T07:11:21.740Z,12.77
2022-08-22T07:13:54.789Z,14.82
2022-08-22T07:16:31.065Z,16.20
2022-08-22T07:18:59.891Z,15.63
2022-08-22T07:21:36.200Z,20.08
2022-08-22T07:24:05.132Z,14.95
2022-08-22T07:26:40.032Z,13.85
2022-08-22T07:29:14.210Z,14.55
2022-08-22T07:31:52.080Z,15.75
2022-08-22T07:34:33.596Z,16.10
2022-08-22T07:37:09.171Z,15.85
2022-08-22T07:39:44.928Z,16.70
2022-08-22T07:42:17.234Z,12.90
2022-08-22T07:47:26.767Z,15.75
2022-08-22T07:49:59.699Z,15.32
2022-08-22T07:52:37.335Z,13.70
2022-08-22T07:55:14.023Z,15.57
2022-08-22T07:57:47.455Z,15.98
2022-08-22T08:00:18.939Z,12.90
2022-08-22T08:02:50.909Z,16.83
2022-08-22T08:05:21.126Z,18.30
2022-08-22T08:07:52.973Z,12.70
2022-08-22T08:10:26.710Z,16.83
2022-08-22T08:13:02.486Z,13.85
2022-08-22T08:15:34.304Z,11.57
2022-08-22T08:18:07.046Z,13.82
2022-08-22T08:20:37.102Z,14.45
2022-08-22T08:23:10.337Z,17.02
2022-08-22T08:25:56.893Z,11.32
2022-08-22T08:28:37.672Z,9.77
2022-08-22T08:31:10.936Z,15.15
2022-08-22T08:33:42.616Z,14.30
2022-08-22T08:36:26.402Z,16.20
2022-08-22T08:39:03.352Z,12.55
2022-08-22T08:42:06.075Z,15.00
2022-08-22T08:47:33.749Z,10.15
2022-08-22T08:50:29.055Z,14.48
2022-08-22T08:53:24.283Z,12.93
2022-08-22T08:56:00.153Z,14.88
2022-08-22T08:58:35.332Z,11.95
2022-08-22T09:01:21.943Z,9.60
2022-08-22T09:04:37.551Z,11.52
2022-08-22T09:07:37.236Z,10.05
2022-08-22T09:10:27.346Z,11.90
2022-08-22T09:13:41.471Z,12.35
2022-08-22T09:16:25.171Z,11.85
2022-08-22T09:19:20.554Z,13.88
2022-08-22T09:22:17.807Z,14.95
2022-08-22T09:25:12.153Z,12.82
2022-08-22T09:27:54.516Z,11.80
2022-08-22T09:30:31.362Z,12.35
2022-08-22T09:33:04.509Z,8.85
2022-08-22T09:35:45.623Z,11.93
2022-08-22T09:38:28.972Z,10.10
2022-08-22T09:41:08.485Z,8.63
2022-08-22T09:43:44.157Z,11.68
2022-08-22T09:46:21.964Z,11.63
2022-08-22T09:49:06.489Z,12.52
2022-08-22T09:51:43.202Z,12.80
2022-08-22T09:54:31.639Z,13.23
2022-08-22T09:57:16.176Z,10.20
2022-08-22T10:00:13.110Z,10.85
2022-08-22T10:02:51.635Z,9.63
2022-08-22T10:05:40.894Z,10.48
2022-08-22T10:08:20.929Z,11.77
2022-08-22T10:11:07.260Z,13.02
2022-08-22T10:13:57.856Z,9.80
2022-08-22T10:17:00.590Z,12.55
2022-08-22T10:19:36.543Z,8.90
2022-08-22T10:22:30.379Z,13.00
2022-08-22T10:25:32.046Z,10.52
2022-08-22T10:28:11.973Z,9.93
2022-08-22T10:30:50.137Z,7.47
2022-08-22T10:33:29.085Z,9.90
2022-08-22T10:36:05.371Z,10.07
2022-08-22T10:38:46.540Z,8.35
2022-08-22T10:41:23.110Z,8.60
2022-08-22T10:44:01.512Z,8.88
2022-08-22T10:46:37.740Z,10.48
2022-08-22T10:49:14.313Z,11.85
2022-08-22T10:51:50.311Z,10.77
2022-08-22T10:54:47.207Z,10.10
2022-08-22T10:57:32.338Z,10.45
2022-08-22T11:00:09.461Z,8.43
2022-08-22T11:02:42.247Z,9.70
2022-08-22T11:05:33.457Z,7.88
2022-08-22T11:08:39.513Z,11.80
2022-08-22T11:11:20.506Z,8.48
2022-08-22T11:14:06.783Z,10.68
2022-08-22T11:16:47.922Z,7.38
2022-08-22T11:19:42.452Z,7.90
2022-08-22T11:22:30.400Z,7.82
2022-08-22T11:25:41.177Z,10.57
2022-08-22T11:28:38.813Z,8.45
2022-08-22T11:31:19.744Z,10.70
2022-08-22T11:33:55.224Z,10.70
2022-08-22T11:36:35.798Z,9.05
2022-08-22T11:39:18.665Z,8.20
2022-08-22T11:41:58.530Z,9.05
2022-08-22T11:44:31.199Z,7.18
2022-08-22T11:47:02.784Z,9.88
2022-08-22T11:49:39.499Z,9.75
2022-08-22T11:52:41.382Z,7.97
2022-08-22T11:55:21.545Z,7.68
2022-08-22T11:57:53.719Z,13.02
2022-08-22T12:00:30.800Z,7.63
2022-08-22T12:03:19.047Z,9.93
2022-08-22T12:05:55.831Z,6.03
2022-08-22T12:08:46.268Z,6.03
2022-08-22T12:11:20.575Z,5.95
2022-08-22T12:14:06.165Z,10.07
2022-08-22T12:16:42.657Z,8.45
2022-08-22T12:19:27.928Z,10.20
2022-08-22T12:22:33.335Z,7.85
2022-08-22T12:25:12.838Z,8.43
2022-08-22T12:27:55.372Z,9.85
2022-08-22T12:30:34.307Z,8.90
2022-08-22T12:33:24.913Z,12.77
2022-08-22T12:36:18.454Z,7.10
2022-08-22T12:39:08.311Z,10.18
2022-08-22T12:41:57.838Z,8.35
2022-08-22T12:44:37.920Z,9.50
2022-08-22T12:47:32.027Z,11.48
2022-08-22T12:50:20.335Z,7.38
2022-08-22T12:53:09.399Z,8.88
2022-08-22T12:55:56.923Z,8.98
2022-08-22T12:58:42.556Z,8.32
2022-08-22T13:01:13.210Z,8.80
2022-08-22T13:03:47.947Z,7.80
2022-08-22T13:06:48.588Z,12.32
2022-08-22T13:09:20.782Z,14.38
2022-08-22T13:12:02.291Z,10.10
2022-08-22T13:14:34.044Z,9.82
2022-08-22T13:17:10.709Z,8.88
2022-08-22T13:20:01.979Z,6.03
2022-08-22T13:22:33.851Z,8.98
2022-08-22T13:25:08.650Z,10.20
2022-08-22T13:27:50.664Z,7.93
2022-08-22T13:30:37.717Z,6.35
2022-08-22T13:33:10.095Z,10.77
2022-08-22T13:35:51.883Z,8.98
2022-08-22T13:38:26.390Z,8.68
2022-08-22T13:40:56.837Z,6.88
2022-08-22T13:43:29.742Z,7.90
2022-08-22T13:46:01.982Z,10.65
2022-08-22T13:48:46.849Z,8.98
2022-08-22T13:51:24.842Z,8.68
2022-08-22T13:54:02.215Z,8.05
2022-08-22T13:56:38.060Z,7.07
2022-08-22T13:59:25.312Z,7.07
2022-08-22T14:02:07.629Z,7.20
2022-08-22T14:04:48.655Z,7.45
2022-08-22T14:07:34.530Z,8.73
2022-08-22T14:10:14.800Z,6.78
2022-08-22T14:13:05.205Z,8.15
2022-08-22T14:15:45.960Z,6.73
2022-08-22T14:18:18.611Z,7.63
2022-08-22T14:20:48.215Z,6.53
2022-08-22T14:23:27.160Z,6.60
2022-08-22T14:25:56.458Z,8.77
2022-08-22T14:28:30.357Z,6.30
2022-08-22T14:31:03.207Z,7.50
2022-08-22T14:33:36.226Z,6.38
2022-08-22T14:36:17.457Z,7.53
2022-08-22T14:38:53.327Z,5.78
2022-08-22T14:41:56.106Z,4.97
2022-08-22T14:44:23.335Z,6.30
2022-08-22T14:46:54.836Z,7.95
2022-08-22T14:49:31.650Z,6.03
2022-08-22T14:52:19.823Z,5.68
2022-08-22T14:54:51.018Z,5.68
2022-08-22T14:57:20.388Z,5.37
2022-08-22T14:59:52.221Z,5.70
2022-08-22T15:02:27.672Z,7.05
2022-08-22T15:04:57.715Z,8.68
2022-08-22T15:07:28.247Z,5.63
2022-08-22T15:10:06.146Z,4.50
2022-08-22T15:12:38.414Z,5.35
2022-08-22T15:15:11.363Z,6.95
2022-08-22T15:17:44.842Z,5.88
2022-08-22T15:20:28.683Z,8.20
2022-08-22T15:23:00.435Z,6.78
2022-08-22T15:25:34.403Z,7.25
2022-08-22T15:28:06.675Z,6.15
2022-08-22T15:30:44.342Z,5.45
2022-08-22T15:33:16.918Z,4.80
2022-08-22T15:35:48.445Z,6.35
2022-08-22T15:38:29.191Z,7.35
2022-08-22T15:41:39.864Z,7.57
2022-08-22T15:44:31.012Z,6.80
2022-08-22T15:47:11.584Z,5.35
2022-08-22T15:49:55.516Z,5.68
2022-08-22T15:52:29.263Z,5.57
2022-08-22T15:55:25.421Z,6.03
2022-08-22T15:58:04.734Z,7.07
2022-08-22T16:00:43.401Z,9.02
2022-08-22T16:03:24.456Z,7.43
2022-08-22T16:05:55.994Z,5.43
2022-08-22T16:08:29.651Z,5.63
2022-08-22T16:11:32.261Z,5.65
2022-08-22T16:14:21.448Z,6.70
2022-08-22T16:17:02.042Z,6.68
2022-08-22T16:19:31.970Z,5.30
2022-08-22T16:22:14.547Z,6.78
2022-08-22T16:25:14.267Z,7.15
2022-08-22T16:27:55.446Z,6.25
2022-08-22T16:30:36.654Z,7.45
2022-08-22T16:36:22.966Z,5.63
2022-08-22T16:38:53.977Z,6.28
2022-08-22T16:41:40.317Z,6.60
2022-08-22T16:44:41.358Z,8.07
2022-08-22T16:47:18.225Z,5.70
2022-08-22T16:50:00.337Z,8.07
2022-08-22T16:53:12.361Z,5.60
2022-08-22T16:56:03.127Z,12.32
2022-08-22T16:59:22.951Z,19.67
2022-08-22T17:02:19.423Z,6.78
2022-08-22T17:05:00.632Z,6.80
2022-08-22T17:07:40.930Z,6.75
2022-08-22T17:10:30.694Z,6.35
2022-08-22T17:13:14.260Z,4.85
2022-08-22T17:15:56.091Z,7.00
2022-08-22T17:18:43.795Z,5.35
2022-08-22T17:21:17.705Z,6.85
2022-08-22T17:23:55.333Z,6.07
2022-08-22T17:26:36.013Z,7.20
2022-08-22T17:29:12.683Z,6.93
2022-08-22T17:31:51.362Z,6.15
2022-08-22T17:34:32.256Z,5.53
2022-08-22T17:37:09.247Z,7.10
2022-08-22T17:39:55.557Z,5.78
2022-08-22T17:43:03.514Z,6.15
2022-08-22T17:45:50.198Z,7.10
2022-08-22T17:48:23.209Z,8.18
2022-08-22T17:50:56.095Z,7.15
2022-08-22T17:53:31.358Z,5.90
2022-08-22T17:56:07.831Z,6.70
2022-08-22T17:58:45.038Z,7.05
2022-08-22T18:01:15.866Z,7.90
2022-08-22T18:03:52.478Z,8.77
2022-08-22T18:06:24.785Z,8.27
2022-08-22T18:09:13.639Z,8.68
2022-08-22T18:11:47.338Z,6.60
2022-08-22T18:14:28.390Z,5.97
2022-08-22T18:16:59.090Z,10.73
2022-08-22T18:19:40.959Z,8.77
2022-08-22T18:22:18.957Z,4.35
2022-08-22T18:24:52.355Z,6.60
2022-08-22T18:27:34.416Z,7.50
2022-08-22T18:30:07.537Z,6.90
2022-08-22T18:32:48.446Z,7.05
2022-08-22T18:35:22.246Z,7.28
2022-08-22T18:37:59.161Z,7.47
2022-08-22T18:40:33.336Z,6.47
2022-08-22T18:43:14.373Z,6.10
2022-08-22T18:46:03.302Z,8.35
2022-08-22T18:48:54.477Z,6.65
2022-08-22T18:51:30.998Z,5.68
2022-08-22T18:54:26.819Z,7.00
2022-08-22T18:57:00.915Z,5.72
2022-08-22T18:59:47.594Z,8.85
2022-08-22T19:02:55.583Z,11.20
2022-08-22T19:05:43.440Z,8.85
2022-08-22T19:08:38.747Z,7.63
2022-08-22T19:11:20.809Z,6.38
2022-08-22T19:14:01.534Z,8.45
2022-08-22T19:17:15.041Z,6.53
2022-08-22T19:20:14.173Z,9.73
2022-08-22T19:22:42.686Z,5.93
2022-08-22T19:25:26.142Z,6.15
2022-08-22T19:28:26.827Z,7.18
2022-08-22T19:31:22.792Z,7.80
2022-08-22T19:34:11.530Z,7.88
2022-08-22T19:36:39.466Z,6.93
2022-08-22T19:39:09.403Z,8.75
2022-08-22T19:41:52.499Z,8.15
2022-08-22T19:44:43.170Z,8.57
2022-08-22T19:47:27.745Z,10.07
2022-08-22T19:50:02.015Z,7.45
2022-08-22T19:52:47.680Z,11.02
2022-08-22T19:55:23.368Z,8.18
2022-08-22T19:58:01.209Z,7.85
2022-08-22T20:00:52.792Z,9.65
2022-08-22T20:03:32.904Z,7.90
2022-08-22T20:06:13.778Z,7.30
2022-08-22T20:09:02.250Z,8.30
2022-08-22T20:11:39.881Z,7.35
2022-08-22T20:14:30.406Z,7.80
2022-08-22T20:17:04.589Z,10.50
2022-08-22T20:22:43.060Z,10.25
2022-08-22T20:25:41.828Z,10.25
2022-08-22T20:28:08.487Z,8.45
2022-08-22T20:30:41.469Z,7.32
2022-08-22T20:33:14.659Z,8.20
2022-08-22T20:35:52.925Z,11.40
2022-08-22T20:38:25.402Z,8.30
2022-08-22T20:41:03.749Z,11.70
2022-08-22T20:43:46.341Z,7.00
2022-08-22T20:46:26.702Z,8.98
2022-08-22T20:48:57.358Z,8.98
2022-08-22T20:51:29.198Z,9.05
2022-08-22T20:53:59.355Z,11.05
2022-08-22T20:56:35.861Z,11.40
2022-08-22T20:59:19.455Z,8.48
2022-08-22T21:01:48.679Z,10.35
2022-08-22T21:04:20.861Z,7.53
2022-08-22T21:09:41.442Z,9.70
2022-08-22T21:12:11.426Z,9.82
2022-08-22T21:14:45.952Z,9.32
2022-08-22T21:17:23.037Z,7.43
2022-08-22T21:19:52.735Z,10.95
2022-08-22T21:22:29.002Z,8.98
2022-08-22T21:24:59.059Z,8.85
2022-08-22T21:27:32.137Z,8.82
2022-08-22T21:30:02.859Z,7.63
2022-08-22T21:32:35.054Z,11.75
2022-08-22T21:37:38.561Z,9.90
2022-08-22T21:40:15.125Z,9.45
2022-08-22T21:42:45.894Z,10.05
2022-08-22T21:45:28.039Z,8.55
2022-08-22T21:47:56.679Z,9.98
2022-08-22T21:50:37.796Z,9.80
2022-08-22T21:53:11.796Z,9.63
2022-08-22T21:55:44.298Z,8.75
2022-08-22T22:01:30.582Z,9.75
2022-08-22T22:04:00.841Z,7.15
2022-08-22T22:06:30.472Z,10.00
2022-08-22T22:08:58.789Z,8.45
2022-08-22T22:11:26.786Z,10.93
2022-08-22T22:13:55.217Z,9.15
2022-08-22T22:16:26.523Z,9.63
2022-08-22T22:18:55.065Z,6.80
2022-08-22T22:21:23.021Z,8.90
2022-08-22T22:23:52.500Z,13.07
2022-08-22T22:26:21.376Z,10.82
2022-08-22T22:28:50.142Z,10.30
2022-08-22T22:31:19.222Z,11.52
2022-08-22T22:33:47.403Z,9.77
2022-08-22T22:36:19.669Z,9.43
2022-08-22T22:41:17.051Z,9.00
2022-08-22T22:43:44.962Z,11.02
2022-08-22T22:46:12.939Z,6.75
2022-08-22T22:48:40.870Z,10.25
2022-08-22T22:51:10.364Z,9.52
2022-08-22T22:53:42.650Z,8.45
2022-08-22T22:56:14.053Z,9.10
2022-08-22T22:58:46.035Z,9.63
2022-08-22T23:01:18.489Z,8.65
2022-08-22T23:03:47.241Z,10.02
2022-08-22T23:06:19.326Z,10.40
2022-08-22T23:08:47.518Z,9.85
2022-08-22T23:11:18.158Z,10.38
2022-08-22T23:13:48.450Z,9.93
2022-08-22T23:16:19.350Z,12.82
2022-08-22T23:18:47.711Z,12.10
2022-08-22T23:21:18.430Z,10.18
2022-08-22T23:23:47.541Z,13.38
2022-08-22T23:26:16.102Z,9.48
2022-08-22T23:28:44.489Z,9.05
2022-08-22T23:31:18.289Z,8.23
2022-08-22T23:33:47.223Z,10.95
2022-08-22T23:36:19.678Z,7.57
2022-08-22T23:38:48.446Z,8.05
2022-08-22T23:41:18.653Z,10.13
2022-08-22T23:43:49.641Z,9.90
2022-08-22T23:46:21.118Z,8.45
2022-08-22T23:48:49.322Z,7.33
2022-08-22T23:51:23.080Z,8.57
2022-08-22T23:53:51.475Z,9.88
2022-08-22T23:56:21.306Z,7.03
2022-08-22T23:58:51.170Z,6.82
